Portada
METAR-TAF:

METAR-TAF

Aeroports :

Txungking, Xina

latitud: 29-31N, longitud: 106-29E, altitud: 351 m

Observació

L'informe es va fer fa 1 hora i 4 minuts, a les 09:00 UTC
Vent 4 kt del Oest/Nord-Oest, variant entre Oest/Sud-Oest i Nord
Temperatura 28°C
Humitat 51%
Pressió 1019 hPa
Visibilitat 10 km o més
sense núvols per sota de 1500 mi sense presència de cumulonimbus.

METAR: ZUCK 220900Z 30002MPS 250V010 CAVOK 28/17 Q1019 NOSIG

Hora: 18:04 (10:04 UTC)

Pronòstic

L'informe es va fer fa 7 hores i 3 minuts, a les 03:01 UTC
Pronòstic vàlid del 22 a les 06 UTC al 23 a les 06 UTC
Vent 6 kt del Est
Visibilitat: 5000 m
Núvols disperses a una alçada de 4000 ft
boirina

TAF: ZUCK 220301Z 2206/2306 08003MPS 5000 BR SCT040 TX27/2207Z TN18/2222Z

Observacions i pronòstics meteorològics de més de 4000 aeroports (METAR i TAF).

Les estacions disponibles són els punts grocs i vermells al mapa.

Posi el ratolí al punt desitjat per veure el nom de l'estació.

Feu clic per veure les observacions i els pronòstics meteorològics.

Per canviar el mapa: feu clic els botons verds amb una creu de color negre per apropar; al botó verd amb un guió per allunyar la imatge; o en les fletxes verdes per a mapes adjacents.


METAR-TAF: